createdAt,value
2024-01-11T00:00:49.051Z,11.97
2024-01-11T00:03:16.567Z,11.97
2024-01-11T00:05:44.576Z,11.43
2024-01-11T00:08:12.705Z,11.97
2024-01-11T00:10:39.827Z,10.50
2024-01-11T00:13:09.797Z,12.60
2024-01-11T00:15:37.086Z,10.37
2024-01-11T00:18:04.832Z,11.07
2024-01-11T00:20:32.040Z,11.10
2024-01-11T00:22:59.506Z,11.77
2024-01-11T00:25:26.923Z,11.40
2024-01-11T00:27:54.137Z,10.90
2024-01-11T00:30:21.395Z,11.47
2024-01-11T00:32:48.790Z,11.77
2024-01-11T00:35:16.166Z,11.70
2024-01-11T00:37:43.415Z,11.83
2024-01-11T00:40:11.096Z,12.70
2024-01-11T00:42:38.523Z,11.43
2024-01-11T00:45:06.336Z,14.03
2024-01-11T00:47:33.582Z,12.23
2024-01-11T00:50:01.059Z,13.70
2024-01-11T00:52:28.287Z,12.27
2024-01-11T00:54:55.564Z,12.70
2024-01-11T00:57:23.049Z,11.97
2024-01-11T00:59:50.309Z,12.67
2024-01-11T01:02:17.587Z,12.03
2024-01-11T01:04:44.872Z,12.57
2024-01-11T01:07:12.153Z,11.77
2024-01-11T01:09:39.704Z,12.53
2024-01-11T01:12:07.141Z,12.27
2024-01-11T01:14:34.883Z,11.80
2024-01-11T01:17:03.432Z,12.80
2024-01-11T01:19:30.738Z,12.60
2024-01-11T01:21:58.154Z,12.87
2024-01-11T01:24:25.297Z,11.63
2024-01-11T01:26:52.596Z,11.53
2024-01-11T01:29:19.846Z,12.00
2024-01-11T01:31:47.170Z,11.60
2024-01-11T01:34:16.089Z,10.97
2024-01-11T01:36:43.497Z,12.13
2024-01-11T01:39:10.766Z,12.80
2024-01-11T01:41:38.285Z,12.93
2024-01-11T01:44:05.745Z,12.20
2024-01-11T01:46:33.233Z,12.90
2024-01-11T01:49:00.779Z,13.47
2024-01-11T01:51:30.443Z,13.43
2024-01-11T01:53:58.824Z,11.27
2024-01-11T01:56:26.384Z,12.83
2024-01-11T01:58:55.064Z,14.03
2024-01-11T02:01:24.681Z,12.13
2024-01-11T02:03:53.684Z,13.57
2024-01-11T02:06:24.709Z,13.93
2024-01-11T02:08:54.709Z,14.90
2024-01-11T02:11:24.462Z,16.00
2024-01-11T02:13:52.285Z,16.17
2024-01-11T02:16:19.587Z,17.10
2024-01-11T02:18:47.105Z,15.83
2024-01-11T02:21:16.820Z,16.50
2024-01-11T02:24:07.972Z,14.43
2024-01-11T02:26:35.578Z,15.37
2024-01-11T02:29:03.206Z,15.30
2024-01-11T02:31:30.536Z,13.37
2024-01-11T02:33:58.003Z,15.57
2024-01-11T02:36:27.040Z,14.23
2024-01-11T02:38:55.122Z,13.30
2024-01-11T02:41:24.070Z,15.80
2024-01-11T02:43:51.313Z,13.97
2024-01-11T02:46:18.811Z,15.63
2024-01-11T02:48:46.333Z,13.47
2024-01-11T02:51:13.688Z,13.83
2024-01-11T02:53:41.046Z,19.80
2024-01-11T02:56:08.412Z,17.30
2024-01-11T02:58:35.698Z,18.27
2024-01-11T03:01:03.114Z,15.43
2024-01-11T03:03:31.294Z,14.17
2024-01-11T03:05:58.813Z,14.07
2024-01-11T03:08:27.517Z,13.93
2024-01-11T03:10:54.814Z,14.10
2024-01-11T03:13:22.305Z,13.40
2024-01-11T03:15:49.642Z,13.57
2024-01-11T03:18:17.243Z,13.03
2024-01-11T03:20:44.625Z,13.40
2024-01-11T03:23:11.952Z,23.07
2024-01-11T03:25:39.230Z,16.33
2024-01-11T03:28:06.535Z,15.40
2024-01-11T03:30:33.884Z,15.67
2024-01-11T03:33:01.241Z,15.97
2024-01-11T03:35:28.721Z,18.57
2024-01-11T03:37:56.184Z,15.20
2024-01-11T03:40:23.469Z,14.97
2024-01-11T03:42:50.807Z,14.43
2024-01-11T03:45:21.216Z,15.63
2024-01-11T03:47:48.517Z,14.70
2024-01-11T03:50:15.820Z,15.33
2024-01-11T03:52:43.861Z,14.73
2024-01-11T03:55:11.154Z,16.07
2024-01-11T03:57:38.388Z,16.27
2024-01-11T04:00:10.798Z,16.97
2024-01-11T04:02:39.066Z,18.47
2024-01-11T04:05:06.931Z,18.93
2024-01-11T04:07:34.341Z,18.17
2024-01-11T04:10:01.660Z,15.40
2024-01-11T04:12:28.884Z,15.10
2024-01-11T04:14:56.274Z,14.90
2024-01-11T04:17:23.608Z,14.87
2024-01-11T04:19:51.060Z,14.63
2024-01-11T04:22:18.470Z,15.77
2024-01-11T04:24:45.895Z,15.43
2024-01-11T04:27:13.321Z,14.23
2024-01-11T04:29:40.539Z,14.33
2024-01-11T04:32:07.790Z,14.97
2024-01-11T04:34:35.123Z,14.07
2024-01-11T04:37:02.511Z,14.90
2024-01-11T04:39:29.689Z,14.20
2024-01-11T04:41:56.902Z,14.47
2024-01-11T04:44:25.456Z,14.37
2024-01-11T04:46:53.883Z,13.40
2024-01-11T04:49:21.228Z,13.37
2024-01-11T04:51:48.528Z,13.83
2024-01-11T04:54:15.778Z,14.67
2024-01-11T04:56:43.292Z,14.73
2024-01-11T04:59:10.649Z,14.50
2024-01-11T05:01:37.881Z,14.00
2024-01-11T05:04:05.270Z,14.53
2024-01-11T05:06:35.412Z,15.27
2024-01-11T05:09:03.155Z,14.87
2024-01-11T05:11:30.498Z,13.80
2024-01-11T05:13:57.818Z,15.73
2024-01-11T05:16:27.372Z,15.20
2024-01-11T05:18:56.448Z,14.23
2024-01-11T05:21:24.453Z,14.43
2024-01-11T05:23:52.391Z,13.73
2024-01-11T05:26:20.688Z,14.50
2024-01-11T05:28:48.252Z,13.50
2024-01-11T05:31:17.705Z,14.77
2024-01-11T05:33:46.107Z,16.37
2024-01-11T05:36:13.688Z,15.83
2024-01-11T05:38:41.884Z,15.17
2024-01-11T05:41:10.092Z,14.67
2024-01-11T05:43:40.393Z,15.67
2024-01-11T05:46:08.665Z,15.17
2024-01-11T05:48:36.108Z,14.97
2024-01-11T05:51:03.462Z,13.00
2024-01-11T05:53:30.886Z,13.30
2024-01-11T05:55:58.301Z,13.53
2024-01-11T05:58:25.707Z,13.10
2024-01-11T06:00:52.988Z,13.97
2024-01-11T06:03:20.406Z,13.17
2024-01-11T06:05:47.843Z,14.43
2024-01-11T06:08:15.282Z,14.47
2024-01-11T06:10:42.835Z,13.17
2024-01-11T06:13:10.902Z,13.97
2024-01-11T06:15:38.206Z,13.20
2024-01-11T06:18:06.440Z,13.80
2024-01-11T06:20:33.971Z,14.30
2024-01-11T06:23:01.295Z,14.00
2024-01-11T06:25:29.013Z,13.33
2024-01-11T06:27:56.748Z,13.23
2024-01-11T06:30:24.036Z,14.97
2024-01-11T06:32:51.320Z,15.07
2024-01-11T06:35:18.753Z,14.33
2024-01-11T06:37:46.001Z,15.03
2024-01-11T06:40:13.179Z,13.53
2024-01-11T06:42:40.384Z,14.33
2024-01-11T06:45:08.188Z,13.87
2024-01-11T06:47:35.571Z,13.43
2024-01-11T06:50:04.117Z,13.33
2024-01-11T06:52:31.381Z,14.67
2024-01-11T06:54:58.509Z,13.97
2024-01-11T06:57:26.063Z,14.40
2024-01-11T06:59:53.348Z,13.37
2024-01-11T07:02:20.625Z,13.90
2024-01-11T07:04:47.765Z,13.27
2024-01-11T07:07:15.002Z,13.23
2024-01-11T07:09:42.244Z,13.17
2024-01-11T07:12:10.171Z,13.70
2024-01-11T07:14:37.804Z,14.13
2024-01-11T07:17:05.458Z,13.47
2024-01-11T07:19:33.392Z,14.40
2024-01-11T07:22:00.721Z,13.87
2024-01-11T07:24:28.013Z,14.67
2024-01-11T07:26:55.572Z,13.70
2024-01-11T07:29:22.972Z,14.10
2024-01-11T07:31:50.222Z,13.30
2024-01-11T07:34:19.082Z,13.60
2024-01-11T07:36:46.452Z,13.57
2024-01-11T07:39:13.709Z,13.60
2024-01-11T07:41:41.064Z,12.47
2024-01-11T07:44:09.087Z,13.80
2024-01-11T07:46:42.542Z,13.63
2024-01-11T07:49:17.226Z,12.47
2024-01-11T07:51:44.769Z,12.73
2024-01-11T07:54:12.040Z,13.27
2024-01-11T07:56:39.779Z,13.77
2024-01-11T07:59:07.163Z,14.17
2024-01-11T08:01:36.715Z,14.00
2024-01-11T08:04:04.530Z,12.97
2024-01-11T08:06:31.991Z,13.30
2024-01-11T08:08:59.312Z,12.97
2024-01-11T08:11:27.901Z,13.30
2024-01-11T08:13:56.421Z,13.03
2024-01-11T08:16:23.695Z,13.87
2024-01-11T08:18:51.829Z,13.20
2024-01-11T08:21:19.021Z,12.97
2024-01-11T08:23:48.987Z,12.63
2024-01-11T08:26:17.119Z,12.87
2024-01-11T08:28:44.747Z,12.80
2024-01-11T08:31:12.144Z,12.57
2024-01-11T08:33:39.601Z,14.00
2024-01-11T08:36:08.370Z,13.43
2024-01-11T08:38:36.995Z,12.80
2024-01-11T08:41:05.068Z,12.63
2024-01-11T08:43:32.530Z,12.80
2024-01-11T08:46:00.284Z,12.47
2024-01-11T08:48:28.351Z,12.90
2024-01-11T08:50:55.826Z,13.30
2024-01-11T08:53:23.190Z,13.00
2024-01-11T08:55:50.504Z,13.40
2024-01-11T08:58:17.708Z,13.50
2024-01-11T09:00:45.599Z,12.50
2024-01-11T09:03:15.215Z,13.73
2024-01-11T09:05:42.737Z,13.47
2024-01-11T09:08:10.239Z,14.03
2024-01-11T09:10:37.622Z,13.70
2024-01-11T09:13:05.016Z,13.77
2024-01-11T09:15:34.116Z,13.47
2024-01-11T09:18:04.372Z,12.83
2024-01-11T09:20:31.833Z,12.37
2024-01-11T09:22:59.046Z,12.63
2024-01-11T09:25:26.495Z,11.90
2024-01-11T09:27:53.815Z,13.03
2024-01-11T09:30:21.093Z,12.87
2024-01-11T09:32:49.116Z,12.77
2024-01-11T09:35:17.022Z,12.23
2024-01-11T09:37:47.265Z,12.27
2024-01-11T09:40:14.742Z,12.87
2024-01-11T09:42:42.141Z,11.60
2024-01-11T09:45:13.863Z,11.97
2024-01-11T09:47:42.179Z,12.47
2024-01-11T09:50:09.914Z,12.77
2024-01-11T09:52:39.442Z,12.50
2024-01-11T09:55:07.372Z,12.00
2024-01-11T09:57:40.218Z,12.50
2024-01-11T10:00:08.998Z,12.57
2024-01-11T10:02:36.533Z,11.73
2024-01-11T10:05:04.765Z,11.50
2024-01-11T10:07:34.205Z,12.53
2024-01-11T10:10:04.578Z,11.77
2024-01-11T10:12:32.014Z,12.10
2024-01-11T10:15:08.533Z,12.33
2024-01-11T10:17:35.889Z,12.27
2024-01-11T10:20:04.813Z,12.77
2024-01-11T10:22:32.154Z,13.83
2024-01-11T10:25:16.988Z,12.47
2024-01-11T10:27:45.834Z,11.37
2024-01-11T10:30:17.849Z,12.00
2024-01-11T10:32:46.235Z,11.98
2024-01-11T10:35:14.043Z,11.30
2024-01-11T10:37:43.016Z,12.10
2024-01-11T10:40:14.418Z,11.20
2024-01-11T10:42:45.058Z,11.90
2024-01-11T10:45:20.685Z,12.13
2024-01-11T10:48:06.149Z,10.60
2024-01-11T10:50:41.465Z,11.20
2024-01-11T10:53:33.660Z,11.13
2024-01-11T10:56:02.350Z,11.73
2024-01-11T10:58:30.531Z,12.00
2024-01-11T11:01:00.549Z,11.80
2024-01-11T11:03:29.812Z,12.00
2024-01-11T11:05:59.402Z,13.93
2024-01-11T11:08:28.243Z,12.57
2024-01-11T11:11:00.159Z,12.30
2024-01-11T11:13:28.461Z,12.90
2024-01-11T11:16:01.575Z,12.20
2024-01-11T11:18:29.567Z,11.77
2024-01-11T11:20:56.876Z,12.23
2024-01-11T11:23:24.627Z,13.03
2024-01-11T11:25:56.644Z,12.80
2024-01-11T11:28:23.901Z,11.45
2024-01-11T11:30:53.898Z,13.40
2024-01-11T11:33:24.508Z,11.67
2024-01-11T11:35:59.508Z,11.03
2024-01-11T11:38:31.315Z,13.60
2024-01-11T11:41:00.107Z,11.67
2024-01-11T11:43:32.740Z,12.03
2024-01-11T11:46:08.722Z,12.07
2024-01-11T11:48:36.793Z,11.37
2024-01-11T11:51:07.142Z,11.70
2024-01-11T11:53:39.473Z,11.37
2024-01-11T11:56:08.164Z,11.00
2024-01-11T11:58:36.118Z,11.67
2024-01-11T12:01:05.448Z,12.07
2024-01-11T12:03:38.484Z,11.30
2024-01-11T12:06:08.378Z,11.97
2024-01-11T12:08:36.954Z,12.00
2024-01-11T12:11:05.322Z,11.60
2024-01-11T12:13:33.780Z,12.10
2024-01-11T12:16:01.332Z,11.37
2024-01-11T12:18:29.005Z,11.20
2024-01-11T12:20:56.485Z,11.53
2024-01-11T12:23:23.959Z,11.03
2024-01-11T12:25:51.482Z,11.63
2024-01-11T12:28:18.891Z,12.10
2024-01-11T12:30:47.607Z,11.50
2024-01-11T12:33:15.318Z,11.73
2024-01-11T12:35:42.734Z,11.73
2024-01-11T12:38:12.578Z,10.97
2024-01-11T12:40:41.206Z,11.40
2024-01-11T12:43:09.246Z,11.80
2024-01-11T12:45:38.065Z,11.57
2024-01-11T12:48:10.092Z,11.77
2024-01-11T12:50:37.756Z,11.88
2024-01-11T12:53:20.524Z,11.63
2024-01-11T12:55:55.077Z,11.07
2024-01-11T12:58:27.569Z,10.63
2024-01-11T13:00:55.487Z,11.17
2024-01-11T13:03:23.203Z,11.87
2024-01-11T13:05:50.741Z,11.90
2024-01-11T13:08:21.006Z,11.07
2024-01-11T13:10:49.684Z,10.93
2024-01-11T13:13:17.726Z,11.23
2024-01-11T13:15:46.374Z,11.27
2024-01-11T13:18:13.977Z,10.07
2024-01-11T13:20:41.468Z,9.80
2024-01-11T13:23:21.725Z,9.27
2024-01-11T13:25:53.751Z,9.47
2024-01-11T13:28:23.821Z,9.15
2024-01-11T13:30:51.234Z,9.00
2024-01-11T13:33:19.334Z,9.03
2024-01-11T13:35:47.712Z,9.13
2024-01-11T13:38:15.248Z,8.43
2024-01-11T13:40:44.346Z,8.80
2024-01-11T13:43:11.942Z,8.97
2024-01-11T13:45:39.339Z,9.13
2024-01-11T13:48:07.866Z,9.27
2024-01-11T13:50:35.962Z,9.53
2024-01-11T13:53:03.785Z,9.83
2024-01-11T13:55:40.066Z,9.90
2024-01-11T13:58:08.186Z,10.23
2024-01-11T14:00:35.690Z,9.67
2024-01-11T14:03:05.033Z,10.80
2024-01-11T14:05:32.657Z,10.60
2024-01-11T14:08:00.903Z,9.80
2024-01-11T14:10:29.059Z,10.87
2024-01-11T14:12:56.546Z,10.90
2024-01-11T14:15:24.377Z,11.53
2024-01-11T14:17:52.115Z,11.07
2024-01-11T14:20:19.551Z,10.40
2024-01-11T14:22:51.010Z,10.17
2024-01-11T14:25:20.119Z,10.00
2024-01-11T14:27:50.867Z,10.70
2024-01-11T14:30:18.453Z,10.20
2024-01-11T14:32:47.132Z,9.40
2024-01-11T14:35:15.218Z,9.17
2024-01-11T14:37:43.215Z,8.90
2024-01-11T14:40:13.868Z,9.00
2024-01-11T14:42:42.546Z,9.80
2024-01-11T14:45:10.184Z,9.70
2024-01-11T14:47:37.709Z,9.30
2024-01-11T14:50:05.979Z,9.27
2024-01-11T14:52:33.518Z,10.40
2024-01-11T14:55:00.929Z,10.20
2024-01-11T14:57:28.299Z,10.17
2024-01-11T14:59:55.780Z,10.67
2024-01-11T15:02:23.232Z,10.47
2024-01-11T15:04:50.642Z,10.80
2024-01-11T15:07:18.168Z,9.80
2024-01-11T15:09:45.458Z,9.57
2024-01-11T15:12:12.725Z,9.90
2024-01-11T15:14:40.091Z,10.07
2024-01-11T15:17:07.559Z,9.70
2024-01-11T15:19:34.833Z,10.07
2024-01-11T15:22:02.125Z,10.27
2024-01-11T15:24:29.995Z,10.23
2024-01-11T15:26:57.599Z,10.53
2024-01-11T15:29:25.004Z,10.53
2024-01-11T15:31:52.735Z,9.90
2024-01-11T15:34:20.685Z,9.80
2024-01-11T15:36:48.323Z,9.77
2024-01-11T15:39:21.777Z,10.40
2024-01-11T15:41:56.953Z,9.80
2024-01-11T15:44:29.064Z,10.83
2024-01-11T15:46:58.211Z,9.50
2024-01-11T15:49:26.111Z,9.80
2024-01-11T15:51:54.988Z,9.60
2024-01-11T15:54:22.624Z,9.50
2024-01-11T15:56:50.318Z,9.17
2024-01-11T15:59:17.959Z,9.60
2024-01-11T16:01:55.449Z,9.33
2024-01-11T16:04:28.228Z,8.48
2024-01-11T16:06:56.330Z,10.27
2024-01-11T16:09:24.757Z,9.70
2024-01-11T16:11:52.524Z,9.13
2024-01-11T16:14:20.195Z,9.30
2024-01-11T16:16:47.701Z,10.07
2024-01-11T16:19:15.160Z,9.30
2024-01-11T16:21:44.211Z,9.70
2024-01-11T16:24:11.581Z,9.57
2024-01-11T16:26:38.924Z,10.20
2024-01-11T16:29:06.966Z,9.53
2024-01-11T16:31:34.273Z,10.33
2024-01-11T16:34:01.567Z,10.73
2024-01-11T16:36:29.218Z,10.27
2024-01-11T16:38:56.818Z,9.30
2024-01-11T16:41:25.938Z,9.57
2024-01-11T16:43:53.307Z,10.00
2024-01-11T16:46:24.220Z,9.73
2024-01-11T16:48:52.457Z,9.87
2024-01-11T16:51:20.391Z,9.63
2024-01-11T16:53:47.901Z,10.10
2024-01-11T16:56:15.485Z,9.40
2024-01-11T16:58:43.266Z,9.90
2024-01-11T17:01:11.449Z,9.60
2024-01-11T17:03:38.893Z,9.47
2024-01-11T17:06:06.989Z,10.10
2024-01-11T17:08:34.343Z,9.43
2024-01-11T17:11:01.651Z,9.73
2024-01-11T17:13:28.875Z,9.73
2024-01-11T17:15:56.292Z,9.97
2024-01-11T17:18:24.105Z,9.83
2024-01-11T17:20:51.900Z,9.30
2024-01-11T17:23:19.679Z,10.07
2024-01-11T17:25:47.394Z,9.60
2024-01-11T17:28:14.630Z,10.40
2024-01-11T17:30:41.950Z,10.17
2024-01-11T17:33:10.178Z,9.70
2024-01-11T17:35:37.909Z,9.63
2024-01-11T17:38:05.465Z,9.93
2024-01-11T17:40:34.769Z,9.73
2024-01-11T17:43:03.516Z,9.53
2024-01-11T17:45:30.923Z,9.73
2024-01-11T17:47:58.511Z,10.53
2024-01-11T17:50:25.961Z,9.70
2024-01-11T17:52:53.280Z,10.20
2024-01-11T17:55:22.044Z,10.27
2024-01-11T17:57:49.334Z,10.07
2024-01-11T18:00:17.049Z,10.07
2024-01-11T18:02:44.273Z,9.70
2024-01-11T18:05:11.746Z,10.17
2024-01-11T18:07:39.214Z,10.07
2024-01-11T18:10:06.994Z,10.43
2024-01-11T18:12:34.255Z,9.77
2024-01-11T18:15:01.637Z,9.70
2024-01-11T18:17:29.105Z,10.37
2024-01-11T18:19:56.523Z,9.63
2024-01-11T18:22:25.343Z,9.13
2024-01-11T18:24:52.701Z,10.43
2024-01-11T18:27:21.166Z,10.13
2024-01-11T18:29:48.620Z,9.93
2024-01-11T18:32:16.129Z,9.67
2024-01-11T18:34:43.457Z,9.50
2024-01-11T18:37:10.658Z,9.47
2024-01-11T18:39:38.546Z,9.57
2024-01-11T18:42:07.870Z,9.33
2024-01-11T18:44:35.300Z,9.70
2024-01-11T18:47:02.770Z,10.13
2024-01-11T18:49:29.995Z,10.67
2024-01-11T18:51:57.295Z,9.77
2024-01-11T18:54:24.629Z,9.47
2024-01-11T18:56:51.914Z,9.27
2024-01-11T18:59:19.601Z,9.83
2024-01-11T19:01:48.948Z,9.43
2024-01-11T19:04:16.459Z,9.80
2024-01-11T19:06:46.468Z,10.23
2024-01-11T19:09:13.853Z,10.10
2024-01-11T19:11:41.445Z,10.10
2024-01-11T19:14:11.202Z,9.80
2024-01-11T19:16:39.056Z,9.67
2024-01-11T19:19:06.361Z,10.00
2024-01-11T19:21:33.917Z,10.23
2024-01-11T19:24:02.796Z,9.77
2024-01-11T19:26:30.584Z,9.90
2024-01-11T19:28:57.796Z,9.37
2024-01-11T19:31:25.507Z,9.47
2024-01-11T19:33:54.207Z,9.60
2024-01-11T19:36:22.059Z,9.33
2024-01-11T19:38:49.321Z,9.67
2024-01-11T19:41:22.833Z,9.30
2024-01-11T19:43:50.340Z,9.87
2024-01-11T19:46:19.077Z,9.70
2024-01-11T19:48:46.940Z,9.37
2024-01-11T19:51:17.452Z,9.37
2024-01-11T19:53:45.688Z,10.27
2024-01-11T19:56:18.068Z,9.40
2024-01-11T19:58:49.444Z,9.43
2024-01-11T20:01:16.938Z,9.97
2024-01-11T20:03:44.612Z,9.13
2024-01-11T20:06:17.505Z,9.57
2024-01-11T20:08:45.110Z,9.77
2024-01-11T20:11:13.459Z,9.57
2024-01-11T20:13:40.919Z,9.47
2024-01-11T20:16:09.559Z,8.90
2024-01-11T20:18:37.529Z,9.47
2024-01-11T20:21:05.478Z,9.37
2024-01-11T20:23:33.326Z,9.23
2024-01-11T20:26:03.726Z,8.83
2024-01-11T20:28:31.326Z,9.07
2024-01-11T20:30:58.626Z,8.83
2024-01-11T20:33:25.934Z,9.47
2024-01-11T20:35:53.350Z,9.70
2024-01-11T20:38:20.746Z,9.43
2024-01-11T20:40:47.980Z,9.13
2024-01-11T20:43:15.178Z,9.10
2024-01-11T20:45:42.476Z,9.20
2024-01-11T20:48:09.734Z,9.53
2024-01-11T20:50:36.956Z,11.27
2024-01-11T20:53:06.330Z,10.67
2024-01-11T20:55:33.636Z,9.47
2024-01-11T20:58:00.864Z,9.37
2024-01-11T21:00:28.312Z,8.67
2024-01-11T21:02:57.083Z,8.50
2024-01-11T21:05:27.196Z,9.03
2024-01-11T21:07:54.379Z,8.80
2024-01-11T21:10:21.559Z,8.87
2024-01-11T21:12:50.289Z,10.10
2024-01-11T21:15:17.647Z,9.47
2024-01-11T21:17:45.003Z,8.90
2024-01-11T21:20:12.635Z,9.20
2024-01-11T21:22:39.844Z,9.17
2024-01-11T21:25:07.464Z,9.30
2024-01-11T21:27:34.739Z,9.63
2024-01-11T21:30:02.099Z,9.47
2024-01-11T21:32:29.470Z,9.27
2024-01-11T21:34:56.955Z,9.10
2024-01-11T21:37:24.212Z,9.70
2024-01-11T21:39:51.414Z,8.90
2024-01-11T21:42:18.587Z,8.97
2024-01-11T21:44:45.785Z,8.97
2024-01-11T21:47:13.978Z,9.13
2024-01-11T21:49:41.179Z,9.27
2024-01-11T21:52:08.725Z,9.20
2024-01-11T21:54:36.782Z,9.27
2024-01-11T21:57:04.496Z,9.00
2024-01-11T21:59:32.702Z,8.80
2024-01-11T22:01:59.912Z,9.20
2024-01-11T22:04:27.117Z,9.27
2024-01-11T22:06:56.472Z,9.07
2024-01-11T22:09:23.787Z,9.30
2024-01-11T22:11:51.170Z,9.27
2024-01-11T22:14:18.524Z,9.30
2024-01-11T22:16:47.016Z,9.43
2024-01-11T22:19:14.506Z,10.07
2024-01-11T22:21:41.841Z,9.53
2024-01-11T22:24:09.572Z,9.70
2024-01-11T22:26:37.007Z,9.77
2024-01-11T22:29:04.246Z,9.63
2024-01-11T22:31:37.413Z,9.60
2024-01-11T22:34:04.953Z,9.80
2024-01-11T22:36:32.849Z,9.80
2024-01-11T22:39:00.250Z,10.17
2024-01-11T22:41:27.591Z,10.30
2024-01-11T22:43:54.802Z,10.00
2024-01-11T22:46:22.208Z,9.57
2024-01-11T22:48:49.657Z,9.30
2024-01-11T22:51:18.165Z,10.23
2024-01-11T22:53:46.135Z,9.83
2024-01-11T22:56:13.531Z,10.27
2024-01-11T22:58:40.693Z,9.80
2024-01-11T23:01:08.083Z,9.73
2024-01-11T23:03:35.363Z,9.80
2024-01-11T23:06:02.882Z,9.83
2024-01-11T23:08:30.222Z,9.73
2024-01-11T23:10:57.460Z,9.63
2024-01-11T23:13:24.975Z,9.93
2024-01-11T23:15:52.245Z,9.97
2024-01-11T23:18:19.556Z,9.50
2024-01-11T23:20:47.062Z,9.67
2024-01-11T23:23:14.317Z,10.43
2024-01-11T23:25:41.580Z,9.50
2024-01-11T23:28:09.215Z,9.63
2024-01-11T23:30:36.498Z,9.60
2024-01-11T23:33:04.117Z,10.23
2024-01-11T23:35:31.491Z,9.97
2024-01-11T23:37:58.777Z,10.30
2024-01-11T23:40:25.921Z,10.03
2024-01-11T23:42:53.949Z,10.13
2024-01-11T23:45:21.289Z,10.57
2024-01-11T23:47:48.694Z,10.03
2024-01-11T23:50:16.286Z,10.40
2024-01-11T23:52:43.762Z,10.73
2024-01-11T23:55:11.139Z,10.10
2024-01-11T23:57:45.023Z,9.70
